Time;durP1;ratioP1;P1;durP2;ratioP2;P2;SDS_P1;SDS_P2;PMS_P1;PMS_P2;Temp;Humidity;BMP_temperature;BMP_pressure;BME280_temperature;BME280_humidity;BME280_pressure;Samples;Min_cycle;Max_cycle;Signal;HPM_P1;HPM_P2
2023/11/30 00:01:36;;;;;;;25.07;20.30;;;0.70;99.90;;;;;;5013354;28;20173;-70
2023/11/30 00:04:02;;;;;;;25.33;20.27;;;0.70;99.90;;;;;;5013461;28;20168;-69
2023/11/30 00:06:28;;;;;;;28.57;18.93;;;0.70;99.90;;;;;;5013360;28;20710;-69
2023/11/30 00:08:53;;;;;;;35.80;18.77;;;0.70;99.90;;;;;;5013587;28;20702;-69
2023/11/30 00:11:19;;;;;;;30.30;19.23;;;0.70;99.90;;;;;;5013176;28;20241;-69
2023/11/30 00:13:44;;;;;;;29.70;19.77;;;0.70;99.90;;;;;;5013226;28;20188;-69
2023/11/30 00:16:10;;;;;;;29.70;19.30;;;0.70;99.90;;;;;;5013313;28;20215;-70
2023/11/30 00:18:36;;;;;;;26.77;20.23;;;0.70;99.90;;;;;;5014611;28;20274;-70
2023/11/30 00:21:01;;;;;;;29.10;19.87;;;0.80;99.90;;;;;;5013375;28;20168;-70
2023/11/30 00:23:27;;;;;;;31.30;21.33;;;0.80;99.90;;;;;;5013332;28;20268;-69
2023/11/30 00:25:53;;;;;;;30.97;21.00;;;0.80;99.90;;;;;;5013327;28;20534;-69
2023/11/30 00:28:18;;;;;;;38.50;20.13;;;0.90;99.90;;;;;;5013285;28;20259;-69
2023/11/30 00:30:44;;;;;;;29.03;20.63;;;0.80;99.90;;;;;;5013400;28;20207;-69
2023/11/30 00:33:10;;;;;;;28.27;19.60;;;0.90;99.90;;;;;;5013258;28;20172;-70
2023/11/30 00:35:35;;;;;;;28.50;19.60;;;0.90;99.90;;;;;;5012545;28;20242;-69
2023/11/30 00:38:01;;;;;;;29.63;19.40;;;0.90;99.90;;;;;;5013062;28;20537;-69
2023/11/30 00:40:27;;;;;;;29.13;20.30;;;0.80;99.90;;;;;;5012798;28;20184;-70
2023/11/30 00:42:52;;;;;;;26.53;19.77;;;0.90;99.90;;;;;;5012840;28;20230;-69
2023/11/30 00:45:18;;;;;;;30.07;19.37;;;0.80;99.90;;;;;;5012790;28;20275;-68
2023/11/30 00:47:44;;;;;;;29.77;19.97;;;0.80;99.90;;;;;;5013076;28;20172;-69
2023/11/30 00:50:09;;;;;;;26.73;19.60;;;0.80;99.90;;;;;;5012286;28;20191;-70
2023/11/30 00:52:35;;;;;;;27.67;20.37;;;0.80;99.90;;;;;;5012774;28;20180;-69
2023/11/30 00:55:00;;;;;;;28.77;19.77;;;0.80;99.90;;;;;;5012735;28;20288;-69
2023/11/30 00:57:26;;;;;;;30.93;20.20;;;0.80;99.90;;;;;;5012280;28;20200;-70
2023/11/30 00:59:51;;;;;;;28.27;20.63;;;0.90;99.90;;;;;;5011660;28;20710;-70
2023/11/30 01:02:17;;;;;;;29.97;20.90;;;0.90;99.90;;;;;;5012596;28;20564;-69
2023/11/30 01:04:43;;;;;;;33.67;22.27;;;0.90;99.90;;;;;;5012628;28;20180;-70
2023/11/30 01:07:08;;;;;;;33.57;20.90;;;0.90;99.90;;;;;;5012856;28;20175;-70
2023/11/30 01:09:34;;;;;;;28.90;21.07;;;1.00;99.90;;;;;;5027714;28;20607;-70
2023/11/30 01:11:59;;;;;;;31.47;22.53;;;1.00;99.90;;;;;;5011968;28;20172;-69
2023/11/30 01:14:25;;;;;;;33.27;20.73;;;1.10;99.90;;;;;;5012687;28;20176;-69
2023/11/30 01:16:50;;;;;;;29.13;20.30;;;1.10;99.90;;;;;;5012172;28;20576;-69
2023/11/30 01:19:16;;;;;;;31.00;21.87;;;1.10;99.90;;;;;;5012301;28;20176;-69
2023/11/30 01:21:41;;;;;;;30.70;21.83;;;1.20;99.90;;;;;;5012615;28;20230;-69
2023/11/30 01:24:07;;;;;;;32.00;21.17;;;1.20;99.90;;;;;;5012218;28;20180;-69
2023/11/30 01:26:33;;;;;;;35.37;21.73;;;1.10;99.90;;;;;;5012234;28;20230;-69
2023/11/30 01:28:58;;;;;;;30.87;21.43;;;1.10;99.90;;;;;;5012257;28;20234;-69
2023/11/30 01:31:24;;;;;;;33.10;21.50;;;1.10;99.90;;;;;;5011671;28;20271;-70
2023/11/30 01:33:49;;;;;;;29.53;21.13;;;1.10;99.90;;;;;;5011638;28;20176;-70
2023/11/30 01:36:15;;;;;;;36.07;22.10;;;1.20;99.90;;;;;;5011952;28;20291;-69
2023/11/30 01:38:41;;;;;;;31.77;20.60;;;1.20;99.90;;;;;;5012165;28;20702;-69
2023/11/30 01:41:07;;;;;;;29.43;20.77;;;1.20;99.90;;;;;;5012990;28;20172;-70
2023/11/30 01:43:32;;;;;;;28.13;20.13;;;1.20;99.90;;;;;;5011576;28;20172;-69
2023/11/30 01:45:58;;;;;;;35.33;20.90;;;1.20;99.90;;;;;;5011613;28;20203;-69
2023/11/30 01:48:24;;;;;;;40.17;24.97;;;1.30;99.90;;;;;;5011377;28;20574;-69
2023/11/30 01:50:50;;;;;;;36.70;22.47;;;1.20;99.90;;;;;;5011819;28;20269;-69
2023/11/30 01:53:16;;;;;;;32.73;21.93;;;1.20;99.90;;;;;;5011872;28;20231;-69
2023/11/30 01:55:42;;;;;;;30.03;20.47;;;1.20;99.90;;;;;;5011855;28;20208;-69
2023/11/30 01:58:09;;;;;;;27.43;19.63;;;1.20;99.90;;;;;;5011691;28;20183;-69
2023/11/30 02:00:36;;;;;;;33.77;20.93;;;1.10;99.90;;;;;;5011180;28;20207;-70
2023/11/30 02:03:03;;;;;;;25.90;19.73;;;1.10;99.90;;;;;;5011885;28;20177;-69
2023/11/30 02:05:29;;;;;;;31.30;19.77;;;1.00;99.90;;;;;;5010943;28;20192;-69
2023/11/30 02:07:54;;;;;;;29.90;20.73;;;0.90;99.90;;;;;;5011668;28;20686;-69
2023/11/30 02:10:22;;;;;;;35.03;20.40;;;0.90;99.90;;;;;;5010801;28;20207;-69
2023/11/30 02:12:48;;;;;;;29.07;20.60;;;0.90;99.90;;;;;;5012105;28;20176;-69
2023/11/30 02:15:13;;;;;;;31.60;20.47;;;0.90;99.90;;;;;;5011572;28;20209;-69
2023/11/30 02:17:39;;;;;;;32.43;21.17;;;0.90;99.90;;;;;;5011455;28;20570;-69
2023/11/30 02:20:05;;;;;;;33.40;21.50;;;0.90;99.90;;;;;;5010753;28;20255;-69
2023/11/30 02:22:31;;;;;;;32.70;21.37;;;0.90;99.90;;;;;;5011676;28;20210;-70
2023/11/30 02:24:57;;;;;;;32.77;20.90;;;0.90;99.90;;;;;;5011730;28;20184;-69
2023/11/30 02:27:22;;;;;;;33.03;21.03;;;0.90;99.90;;;;;;5011508;28;20175;-70
2023/11/30 02:29:48;;;;;;;33.73;21.27;;;0.80;99.90;;;;;;5011052;28;20190;-69
2023/11/30 02:32:14;;;;;;;31.17;21.17;;;0.90;99.90;;;;;;5011368;28;20670;-70
2023/11/30 02:34:39;;;;;;;30.90;20.83;;;0.80;99.90;;;;;;5010923;28;20180;-69
2023/11/30 02:37:05;;;;;;;32.80;20.93;;;0.90;99.90;;;;;;5011557;28;20200;-70
2023/11/30 02:39:30;;;;;;;30.57;20.43;;;0.90;99.90;;;;;;5011358;28;20188;-70
2023/11/30 02:41:56;;;;;;;32.83;20.57;;;0.90;99.90;;;;;;5011378;28;20207;-70
2023/11/30 02:44:21;;;;;;;34.73;20.37;;;0.90;99.90;;;;;;5011057;28;20179;-69
2023/11/30 02:46:47;;;;;;;31.77;21.57;;;1.00;99.90;;;;;;5011473;28;20200;-70
2023/11/30 02:49:13;;;;;;;29.60;20.07;;;1.10;99.90;;;;;;5011367;28;20275;-70
2023/11/30 02:51:38;;;;;;;29.83;21.07;;;1.10;99.90;;;;;;5010416;28;20173;-71
2023/11/30 02:54:04;;;;;;;30.43;21.27;;;1.20;99.90;;;;;;5011427;28;20549;-70
2023/11/30 02:56:29;;;;;;;31.23;20.40;;;1.10;99.90;;;;;;5011113;28;20695;-70
2023/11/30 02:58:55;;;;;;;30.27;20.70;;;1.20;99.90;;;;;;5011318;28;20191;-69
2023/11/30 03:01:21;;;;;;;29.60;19.90;;;1.10;99.90;;;;;;5011334;28;20184;-71
2023/11/30 03:03:46;;;;;;;33.87;21.80;;;1.10;99.90;;;;;;5012568;28;20255;-69
2023/11/30 03:06:12;;;;;;;28.43;19.60;;;1.20;99.90;;;;;;5011072;28;20189;-70
2023/11/30 03:08:38;;;;;;;31.87;20.00;;;1.20;99.90;;;;;;5011221;28;20180;-70
2023/11/30 03:11:04;;;;;;;28.40;19.83;;;1.20;99.90;;;;;;5011020;28;20180;-70
2023/11/30 03:13:29;;;;;;;32.90;20.07;;;1.20;99.90;;;;;;5011017;28;20176;-69
2023/11/30 03:15:55;;;;;;;28.70;20.07;;;1.20;99.90;;;;;;5010730;28;20204;-70
2023/11/30 03:18:20;;;;;;;28.43;20.50;;;1.20;99.90;;;;;;5010712;28;20188;-70
2023/11/30 03:20:46;;;;;;;34.50;21.20;;;1.20;99.90;;;;;;5010873;28;20545;-70
2023/11/30 03:23:11;;;;;;;28.27;19.73;;;1.30;99.90;;;;;;5014110;28;20184;-70
2023/11/30 03:25:40;;;;;;;31.70;22.27;;;1.30;99.90;;;;;;5014249;28;20287;-70
2023/11/30 03:28:05;;;;;;;35.17;22.37;;;1.20;99.90;;;;;;5014543;28;20294;-71
2023/11/30 03:30:31;;;;;;;32.40;20.97;;;1.20;99.90;;;;;;5013946;28;20259;-71
2023/11/30 03:32:58;;;;;;;32.87;20.30;;;1.20;99.90;;;;;;5014378;28;20172;-70
2023/11/30 03:35:24;;;;;;;32.00;22.17;;;1.30;99.90;;;;;;5014074;28;20566;-70
2023/11/30 03:37:49;;;;;;;37.67;22.63;;;1.30;99.90;;;;;;5014813;28;20318;-70
2023/11/30 03:40:15;;;;;;;33.57;20.17;;;1.40;99.90;;;;;;5013336;28;20658;-70
2023/11/30 03:42:41;;;;;;;28.00;19.07;;;1.40;99.90;;;;;;5014176;28;20526;-70
2023/11/30 03:45:06;;;;;;;28.90;19.23;;;1.40;99.90;;;;;;5014498;28;20180;-70
2023/11/30 03:47:32;;;;;;;30.63;20.17;;;1.50;99.90;;;;;;5014350;28;20588;-70
2023/11/30 03:49:58;;;;;;;24.47;18.93;;;1.50;99.90;;;;;;5013385;28;20215;-70
2023/11/30 03:52:23;;;;;;;26.97;19.30;;;1.40;99.90;;;;;;5013703;28;20192;-70
2023/11/30 03:54:49;;;;;;;25.50;19.07;;;1.50;99.90;;;;;;5013736;28;20180;-70
2023/11/30 03:57:14;;;;;;;29.60;18.23;;;1.50;99.90;;;;;;5013914;28;20609;-70
2023/11/30 03:59:40;;;;;;;31.73;19.37;;;1.50;99.90;;;;;;5014103;28;20168;-70
2023/11/30 04:02:06;;;;;;;32.57;19.70;;;1.50;99.90;;;;;;5013373;28;20238;-70
2023/11/30 04:04:31;;;;;;;29.13;19.20;;;1.40;99.90;;;;;;5013639;28;20200;-70
2023/11/30 04:06:57;;;;;;;25.70;19.47;;;1.40;99.90;;;;;;5013930;28;20275;-70
2023/11/30 04:09:23;;;;;;;29.83;18.53;;;1.50;99.90;;;;;;5013778;28;20176;-70
2023/11/30 04:11:48;;;;;;;23.07;18.80;;;1.50;99.90;;;;;;5013629;28;20180;-70
2023/11/30 04:14:14;;;;;;;31.03;18.30;;;1.50;99.90;;;;;;5013219;28;20635;-70
2023/11/30 04:16:39;;;;;;;24.33;17.97;;;1.50;99.90;;;;;;5013155;28;20274;-71
2023/11/30 04:19:05;;;;;;;25.80;18.33;;;1.50;99.90;;;;;;5013473;28;20636;-71
2023/11/30 04:21:32;;;;;;;25.30;18.87;;;1.50;99.90;;;;;;5013404;28;20169;-71
2023/11/30 04:23:58;;;;;;;30.57;19.67;;;1.40;99.90;;;;;;5013485;28;20183;-71
2023/11/30 04:26:25;;;;;;;27.20;19.67;;;1.40;99.90;;;;;;5013667;28;20238;-70
2023/11/30 04:28:50;;;;;;;30.13;19.10;;;1.50;99.90;;;;;;5013160;28;20218;-71
2023/11/30 04:31:16;;;;;;;31.40;19.77;;;1.50;99.90;;;;;;5013220;28;20208;-71
2023/11/30 04:33:41;;;;;;;27.27;19.67;;;1.50;99.90;;;;;;5012792;28;20184;-70
2023/11/30 04:36:07;;;;;;;28.20;17.97;;;1.50;99.90;;;;;;5012435;28;20572;-70
2023/11/30 04:38:33;;;;;;;26.97;19.43;;;1.50;99.90;;;;;;5012639;28;20210;-70
2023/11/30 04:40:58;;;;;;;31.73;20.07;;;1.40;99.90;;;;;;5012581;28;20630;-71
2023/11/30 04:43:24;;;;;;;36.30;20.57;;;1.40;99.90;;;;;;5007030;28;20177;-71
2023/11/30 04:45:50;;;;;;;30.93;20.97;;;1.40;99.90;;;;;;4992758;28;20200;-70
2023/11/30 04:48:15;;;;;;;29.27;19.70;;;1.40;99.90;;;;;;4993327;28;20537;-70
2023/11/30 04:50:41;;;;;;;29.67;19.13;;;1.50;99.90;;;;;;4993266;28;20180;-70
2023/11/30 04:53:06;;;;;;;29.70;20.00;;;1.50;99.90;;;;;;4993333;28;20180;-69
2023/11/30 04:55:32;;;;;;;29.97;20.03;;;1.50;99.90;;;;;;4993052;28;20215;-70
2023/11/30 04:57:57;;;;;;;29.80;19.70;;;1.60;99.90;;;;;;4998214;28;20187;-70
2023/11/30 05:00:23;;;;;;;35.27;20.40;;;1.60;99.90;;;;;;5011962;28;20267;-71
2023/11/30 05:02:54;;;;;;;27.80;19.30;;;1.60;99.90;;;;;;5012437;28;20709;-71
2023/11/30 05:05:21;;;;;;;33.03;19.73;;;1.60;99.90;;;;;;5012920;28;20559;-71
2023/11/30 05:07:47;;;;;;;27.60;19.07;;;1.60;99.90;;;;;;5012764;28;20174;-70
2023/11/30 05:10:13;;;;;;;33.80;20.33;;;1.60;99.90;;;;;;5012346;28;20178;-71
2023/11/30 05:12:39;;;;;;;29.77;19.93;;;1.60;99.90;;;;;;5011008;28;20640;-71
2023/11/30 05:15:05;;;;;;;33.03;19.07;;;1.60;99.90;;;;;;5012750;28;20671;-70
2023/11/30 05:17:31;;;;;;;33.00;20.17;;;1.60;99.90;;;;;;5012037;28;20274;-70
2023/11/30 05:19:57;;;;;;;32.13;20.10;;;1.60;99.90;;;;;;5012191;28;20222;-70
2023/11/30 05:22:23;;;;;;;35.03;21.10;;;1.60;99.90;;;;;;5012355;28;20181;-71
2023/11/30 05:24:51;;;;;;;32.97;21.53;;;1.60;99.90;;;;;;5012119;28;20183;-70
2023/11/30 05:27:17;;;;;;;35.87;22.23;;;1.70;99.90;;;;;;5012216;28;20529;-71
2023/11/30 05:29:42;;;;;;;31.10;21.17;;;1.70;99.90;;;;;;5011894;28;20187;-71
2023/11/30 05:32:08;;;;;;;36.30;21.00;;;1.70;99.90;;;;;;5011707;28;20628;-70
2023/11/30 05:34:36;;;;;;;37.50;22.00;;;1.70;99.90;;;;;;5012230;28;20207;-70
2023/11/30 05:37:03;;;;;;;32.90;20.90;;;1.70;99.90;;;;;;5011957;28;20262;-71
2023/11/30 05:39:30;;;;;;;37.17;21.43;;;1.70;99.90;;;;;;5011679;28;20263;-71
2023/11/30 05:41:55;;;;;;;31.87;20.77;;;1.60;99.90;;;;;;5011709;28;20176;-71
2023/11/30 05:44:21;;;;;;;31.37;21.70;;;1.60;99.90;;;;;;5025966;28;20168;-71
2023/11/30 05:46:46;;;;;;;31.47;21.10;;;1.70;99.90;;;;;;5011740;28;20223;-70
2023/11/30 05:49:12;;;;;;;37.77;22.30;;;1.70;99.90;;;;;;5012822;28;20182;-71
2023/11/30 05:51:39;;;;;;;34.27;21.80;;;1.70;99.90;;;;;;5012319;28;20172;-71
2023/11/30 05:54:05;;;;;;;51.53;27.03;;;1.70;99.90;;;;;;5011311;28;20242;-70
2023/11/30 05:56:31;;;;;;;44.90;25.47;;;1.70;99.90;;;;;;5011549;28;20200;-70
2023/11/30 05:58:57;;;;;;;33.83;22.17;;;1.70;99.90;;;;;;5011026;28;20658;-70
2023/11/30 06:01:23;;;;;;;38.07;22.27;;;1.70;99.90;;;;;;5011746;28;20164;-70
2023/11/30 06:03:49;;;;;;;44.10;23.57;;;1.70;99.90;;;;;;5011598;28;20168;-70
2023/11/30 06:06:14;;;;;;;37.97;23.37;;;1.70;99.90;;;;;;5011825;28;20192;-71
2023/11/30 06:08:40;;;;;;;43.07;24.27;;;1.70;99.90;;;;;;5011272;28;20176;-70
2023/11/30 06:11:06;;;;;;;45.40;23.97;;;1.70;99.90;;;;;;5011418;28;20199;-70
2023/11/30 06:13:31;;;;;;;39.60;22.77;;;1.70;99.90;;;;;;5011593;28;20180;-70
2023/11/30 06:15:57;;;;;;;36.10;21.20;;;1.70;99.90;;;;;;5011063;28;20298;-70
2023/11/30 06:18:23;;;;;;;34.03;20.83;;;1.70;99.90;;;;;;5011301;28;20188;-70
2023/11/30 06:20:48;;;;;;;37.60;22.93;;;1.70;99.90;;;;;;5011259;28;20175;-70
2023/11/30 06:23:15;;;;;;;32.73;20.60;;;1.70;99.90;;;;;;5011459;28;20180;-70
2023/11/30 06:25:42;;;;;;;37.13;21.63;;;1.70;99.90;;;;;;5011247;28;20282;-70
2023/11/30 06:28:07;;;;;;;33.67;21.73;;;1.80;99.90;;;;;;5011375;28;20188;-70
2023/11/30 06:30:33;;;;;;;43.70;23.40;;;1.80;99.90;;;;;;5010842;28;20544;-70
2023/11/30 06:32:59;;;;;;;39.50;21.93;;;1.80;99.90;;;;;;5011415;28;20572;-70
2023/11/30 06:35:24;;;;;;;37.90;22.77;;;1.70;99.90;;;;;;5010533;28;20204;-70
2023/11/30 06:37:50;;;;;;;38.40;23.30;;;1.70;99.90;;;;;;5011395;28;20179;-70
2023/11/30 06:40:15;;;;;;;36.47;21.23;;;1.70;99.90;;;;;;5010949;28;20176;-70
2023/11/30 06:42:41;;;;;;;37.40;21.10;;;1.70;99.90;;;;;;5010567;28;20184;-70
2023/11/30 06:45:07;;;;;;;43.00;22.67;;;1.70;99.90;;;;;;5010966;28;20203;-70
2023/11/30 06:47:33;;;;;;;37.60;21.57;;;1.70;99.90;;;;;;5011387;28;20211;-70
2023/11/30 06:49:59;;;;;;;37.07;22.97;;;1.70;99.90;;;;;;5010968;28;20207;-70
2023/11/30 06:52:25;;;;;;;38.07;21.27;;;1.80;99.90;;;;;;5011114;28;20180;-70
2023/11/30 06:54:50;;;;;;;35.70;22.00;;;1.80;99.90;;;;;;5011245;28;20187;-70
2023/11/30 06:57:16;;;;;;;39.43;22.87;;;1.80;99.90;;;;;;5014340;28;20600;-71
2023/11/30 06:59:43;;;;;;;38.80;22.43;;;1.80;99.90;;;;;;5015046;28;20694;-70
2023/11/30 07:02:09;;;;;;;34.43;21.50;;;1.80;99.90;;;;;;5014392;28;20195;-70
2023/11/30 07:04:35;;;;;;;39.47;22.37;;;1.90;99.90;;;;;;5010011;28;20180;-70
2023/11/30 07:07:00;;;;;;;42.40;22.63;;;1.80;99.90;;;;;;5014758;28;20203;-70
2023/11/30 07:09:26;;;;;;;44.20;24.20;;;1.90;99.90;;;;;;5014916;28;20229;-70
2023/11/30 07:11:52;;;;;;;36.73;21.53;;;1.90;99.90;;;;;;5015146;28;20176;-70
2023/11/30 07:14:18;;;;;;;42.43;24.87;;;1.90;99.90;;;;;;5014620;28;20169;-70
2023/11/30 07:16:44;;;;;;;33.93;21.90;;;2.00;99.90;;;;;;5012379;28;20227;-71
2023/11/30 07:19:09;;;;;;;35.90;21.17;;;2.10;99.90;;;;;;5014305;28;20226;-70
2023/11/30 07:21:35;;;;;;;38.57;21.13;;;2.10;99.90;;;;;;5014197;28;20548;-70
2023/11/30 07:24:01;;;;;;;42.77;20.57;;;2.10;99.90;;;;;;5013633;28;20467;-70
2023/11/30 07:26:26;;;;;;;38.40;21.53;;;2.10;99.90;;;;;;5014175;28;20668;-70
2023/11/30 07:28:52;;;;;;;31.37;19.83;;;2.00;99.90;;;;;;5013409;28;20199;-70
2023/11/30 07:31:21;;;;;;;35.17;20.77;;;2.00;99.90;;;;;;5013545;28;20562;-70
2023/11/30 07:33:48;;;;;;;33.00;19.93;;;1.90;99.90;;;;;;5013796;28;20205;-70
2023/11/30 07:36:13;;;;;;;41.13;21.83;;;1.90;99.90;;;;;;5013867;28;20207;-71
2023/11/30 07:38:39;;;;;;;36.63;20.90;;;1.90;99.90;;;;;;5013919;28;20165;-70
2023/11/30 07:41:07;;;;;;;33.80;20.93;;;1.90;99.90;;;;;;5013817;28;20196;-71
2023/11/30 07:43:32;;;;;;;33.00;21.27;;;2.00;99.90;;;;;;5013818;28;20179;-71
2023/11/30 07:45:58;;;;;;;38.23;21.67;;;1.90;99.90;;;;;;5013240;28;20208;-72
2023/11/30 07:48:24;;;;;;;38.20;20.70;;;1.90;99.90;;;;;;5013761;28;20180;-71
2023/11/30 07:50:50;;;;;;;40.33;20.47;;;1.90;99.90;;;;;;5013767;28;20195;-71
2023/11/30 07:53:17;;;;;;;37.20;20.70;;;1.90;99.90;;;;;;5013770;28;20562;-70
2023/11/30 07:55:43;;;;;;;40.93;23.37;;;1.90;99.90;;;;;;5013559;28;20199;-71
2023/11/30 07:58:09;;;;;;;40.67;22.00;;;2.00;99.90;;;;;;5012910;28;20534;-71
2023/11/30 08:00:35;;;;;;;37.50;21.80;;;2.00;99.90;;;;;;5013570;28;20179;-71
2023/11/30 08:03:01;;;;;;;37.57;21.40;;;2.10;99.90;;;;;;5013393;28;20172;-71
2023/11/30 08:05:27;;;;;;;41.37;21.93;;;2.20;99.90;;;;;;5013417;28;20196;-70
2023/11/30 08:07:53;;;;;;;41.23;22.20;;;2.30;99.90;;;;;;5012222;28;20176;-70
2023/11/30 08:10:18;;;;;;;42.83;22.93;;;2.40;99.90;;;;;;5012913;28;20177;-70
2023/11/30 08:12:44;;;;;;;40.40;22.27;;;2.40;99.90;;;;;;5012972;28;20223;-70
2023/11/30 08:15:10;;;;;;;42.33;22.00;;;2.50;99.90;;;;;;5013102;28;20188;-70
2023/11/30 08:17:35;;;;;;;41.03;21.10;;;2.50;99.90;;;;;;5012967;28;20214;-70
2023/11/30 08:20:01;;;;;;;44.43;24.07;;;2.60;99.90;;;;;;5012687;28;20259;-68
2023/11/30 08:22:27;;;;;;;51.20;27.37;;;2.70;99.90;;;;;;5012187;28;20649;-68
2023/11/30 08:24:53;;;;;;;43.97;25.30;;;2.80;99.90;;;;;;5011514;28;20184;-69
2023/11/30 08:27:22;;;;;;;42.77;25.37;;;2.90;99.90;;;;;;5011636;28;20176;-69
2023/11/30 08:29:49;;;;;;;37.63;22.60;;;2.90;99.90;;;;;;5011979;28;20216;-69
2023/11/30 08:32:14;;;;;;;38.77;23.10;;;3.00;99.90;;;;;;5012554;28;20660;-69
2023/11/30 08:34:40;;;;;;;48.50;24.10;;;3.10;99.90;;;;;;5012666;28;20207;-69
2023/11/30 08:37:06;;;;;;;38.37;23.97;;;3.10;99.90;;;;;;5011504;28;20559;-69
2023/11/30 08:39:31;;;;;;;40.37;23.20;;;3.20;99.90;;;;;;5027703;28;20176;-69
2023/11/30 08:41:57;;;;;;;38.13;22.57;;;3.30;99.90;;;;;;5012657;28;20631;-69
2023/11/30 08:44:23;;;;;;;36.60;22.20;;;3.30;99.90;;;;;;5012183;28;20184;-69
2023/11/30 08:46:49;;;;;;;37.43;22.10;;;3.40;99.90;;;;;;5012557;28;20282;-70
2023/11/30 08:49:15;;;;;;;32.53;20.03;;;3.40;99.90;;;;;;5012592;28;20183;-69
2023/11/30 08:51:42;;;;;;;37.00;21.53;;;3.30;99.90;;;;;;5012505;28;20173;-69
2023/11/30 08:54:07;;;;;;;37.07;20.77;;;3.30;99.90;;;;;;5012616;28;20187;-69
2023/11/30 08:56:33;;;;;;;37.00;19.50;;;3.20;99.90;;;;;;5011984;28;20224;-69
2023/11/30 08:58:58;;;;;;;37.47;20.53;;;3.10;99.90;;;;;;5012299;28;20251;-69
2023/11/30 09:01:24;;;;;;;35.70;21.70;;;3.20;99.90;;;;;;5012286;28;20180;-69
2023/11/30 09:03:52;;;;;;;32.93;20.17;;;3.20;99.90;;;;;;5012271;28;20211;-69
2023/11/30 09:06:18;;;;;;;35.93;20.00;;;3.30;99.90;;;;;;5011236;28;20215;-69
2023/11/30 09:08:44;;;;;;;38.27;21.37;;;3.30;99.90;;;;;;5012068;28;20631;-69
2023/11/30 09:11:09;;;;;;;36.57;21.47;;;3.40;99.90;;;;;;5012531;28;20597;-69
2023/11/30 09:13:35;;;;;;;34.90;20.00;;;3.30;99.90;;;;;;5011373;28;20192;-69
2023/11/30 09:16:01;;;;;;;33.40;20.73;;;3.30;99.90;;;;;;5012765;28;20200;-69
2023/11/30 09:18:27;;;;;;;36.00;20.73;;;3.40;99.90;;;;;;5011966;28;20235;-70
2023/11/30 09:20:52;;;;;;;35.80;19.87;;;3.50;99.90;;;;;;5011027;28;20207;-69
2023/11/30 09:23:18;;;;;;;34.67;20.07;;;3.50;99.90;;;;;;5011978;28;20211;-69
2023/11/30 09:25:44;;;;;;;32.23;19.13;;;3.50;99.90;;;;;;5011860;28;20195;-69
2023/11/30 09:28:10;;;;;;;35.07;19.73;;;3.50;99.90;;;;;;5011747;28;20180;-69
2023/11/30 09:30:35;;;;;;;30.13;19.07;;;3.50;99.90;;;;;;5011572;28;20188;-69
2023/11/30 09:33:01;;;;;;;37.33;20.77;;;3.50;99.90;;;;;;5011871;28;20560;-69
2023/11/30 09:35:26;;;;;;;46.73;22.10;;;3.50;99.90;;;;;;5011924;28;20196;-69
2023/11/30 09:37:52;;;;;;;33.23;19.53;;;3.50;99.90;;;;;;5011631;28;20350;-69
2023/11/30 09:40:18;;;;;;;34.67;19.77;;;3.60;99.90;;;;;;5010094;28;20546;-70
2023/11/30 09:42:44;;;;;;;38.07;21.30;;;3.60;99.90;;;;;;5014730;28;20251;-70
2023/11/30 09:45:10;;;;;;;35.33;22.00;;;3.70;99.90;;;;;;5011730;28;20204;-70
2023/11/30 09:47:36;;;;;;;36.70;20.30;;;3.70;99.90;;;;;;5011775;28;20235;-70
2023/11/30 09:50:02;;;;;;;34.57;19.50;;;3.80;99.90;;;;;;5011212;28;20176;-70
2023/11/30 09:52:28;;;;;;;36.83;20.40;;;3.90;99.90;;;;;;5011647;28;20606;-70
2023/11/30 09:54:56;;;;;;;29.73;19.13;;;4.00;99.90;;;;;;5011403;28;20763;-70
2023/11/30 09:57:23;;;;;;;29.40;18.87;;;4.10;99.90;;;;;;5012369;28;20208;-70
2023/11/30 09:59:51;;;;;;;32.53;18.47;;;4.10;99.90;;;;;;5012142;28;20175;-70
2023/11/30 10:02:18;;;;;;;31.33;18.60;;;4.10;99.90;;;;;;5011537;28;20244;-70
2023/11/30 10:04:45;;;;;;;28.83;17.83;;;4.10;99.90;;;;;;5011765;28;20168;-70
2023/11/30 10:07:11;;;;;;;29.43;17.37;;;4.20;99.90;;;;;;5011969;28;20275;-70
2023/11/30 10:09:37;;;;;;;27.80;17.53;;;4.20;99.90;;;;;;5011744;28;20176;-70
2023/11/30 10:12:04;;;;;;;30.00;18.17;;;4.30;99.90;;;;;;5011366;28;20207;-70
2023/11/30 10:14:29;;;;;;;29.83;17.80;;;4.30;99.90;;;;;;5010051;28;20190;-70
2023/11/30 10:16:55;;;;;;;28.80;18.13;;;4.30;99.90;;;;;;5011015;28;20573;-70
2023/11/30 10:19:21;;;;;;;26.43;17.70;;;4.40;99.90;;;;;;5011484;28;20164;-70
2023/11/30 10:21:47;;;;;;;29.27;17.20;;;4.40;99.90;;;;;;5011252;28;20168;-71
2023/11/30 10:24:13;;;;;;;30.50;18.03;;;4.40;99.90;;;;;;5011139;28;20620;-70
2023/11/30 10:26:42;;;;;;;30.17;17.00;;;4.40;99.90;;;;;;5011142;28;20203;-70
2023/11/30 10:29:08;;;;;;;29.57;18.13;;;4.30;99.90;;;;;;5011091;28;20178;-70
2023/11/30 10:31:37;;;;;;;28.57;17.67;;;4.30;99.90;;;;;;5013277;28;20180;-71
2023/11/30 10:34:13;;;;;;;27.43;18.30;;;4.30;99.90;;;;;;5013694;28;20188;-71
2023/11/30 10:36:42;;;;;;;25.27;16.83;;;4.30;99.90;;;;;;5014958;28;20214;-70
2023/11/30 10:39:18;;;;;;;25.80;15.83;;;4.40;99.90;;;;;;5014997;28;20195;-70
2023/11/30 10:41:52;;;;;;;27.53;16.57;;;4.40;99.90;;;;;;5014077;28;20176;-70
2023/11/30 10:44:29;;;;;;;27.20;16.63;;;4.50;99.90;;;;;;5004878;28;20605;-70
2023/11/30 10:46:56;;;;;;;21.37;15.33;;;4.50;99.90;;;;;;5014584;28;20687;-70
2023/11/30 10:49:23;;;;;;;26.10;16.67;;;4.50;99.90;;;;;;5014925;28;20168;-70
2023/11/30 10:51:58;;;;;;;23.13;15.43;;;4.60;99.90;;;;;;5010850;28;20216;-70
2023/11/30 10:54:49;;;;;;;21.90;15.27;;;4.70;99.90;;;;;;5014941;28;20212;-70
2023/11/30 10:57:17;;;;;;;24.33;15.20;;;4.90;99.90;;;;;;5014714;28;20192;-70
2023/11/30 10:59:47;;;;;;;23.07;15.67;;;4.90;99.90;;;;;;5014646;28;20219;-70
2023/11/30 11:02:15;;;;;;;30.70;20.63;;;5.00;99.90;;;;;;5014586;28;20555;-70
2023/11/30 11:04:42;;;;;;;23.57;15.83;;;5.00;99.90;;;;;;5014484;28;20226;-70
2023/11/30 11:07:13;;;;;;;24.80;16.10;;;5.10;99.90;;;;;;5014258;28;20471;-70
2023/11/30 11:09:51;;;;;;;19.90;14.53;;;5.20;95.20;;;;;;5014323;28;20180;-70
2023/11/30 11:12:22;;;;;;;17.77;14.23;;;5.30;53.10;;;;;;5014455;28;20196;-70
2023/11/30 11:14:49;;;;;;;18.00;13.83;;;5.40;24.20;;;;;;5014365;28;20174;-70
2023/11/30 11:17:15;;;;;;;24.20;15.30;;;5.50;1.00;;;;;;5014214;28;20216;-70
2023/11/30 11:19:42;;;;;;;21.10;14.77;;;5.70;1.00;;;;;;5014350;28;20180;-70
2023/11/30 11:22:34;;;;;;;23.93;17.07;;;5.80;1.00;;;;;;5029716;28;20287;-70
2023/11/30 11:25:00;;;;;;;21.77;16.30;;;5.90;1.00;;;;;;5012876;28;20258;-70
2023/11/30 11:27:31;;;;;;;24.00;17.07;;;6.20;21.20;;;;;;5014324;28;20187;-70
2023/11/30 11:29:58;;;;;;;19.53;13.90;;;6.60;99.90;;;;;;5014003;28;20199;-70
2023/11/30 11:32:25;;;;;;;14.53;12.03;;;6.80;99.90;;;;;;5013981;28;20263;-70
2023/11/30 11:34:51;;;;;;;15.83;11.93;;;6.90;99.90;;;;;;5014172;28;20187;-70
2023/11/30 11:37:16;;;;;;;14.00;11.53;;;6.90;1.00;;;;;;5013819;28;20208;-70
2023/11/30 11:39:42;;;;;;;16.23;11.50;;;7.00;99.90;;;;;;5014013;28;20184;-70
2023/11/30 11:42:08;;;;;;;13.10;10.47;;;7.00;99.90;;;;;;5012944;28;20183;-70
2023/11/30 11:44:34;;;;;;;19.27;16.60;;;7.10;99.90;;;;;;5013943;28;20168;-70
2023/11/30 11:47:00;;;;;;;14.20;11.53;;;7.10;99.90;;;;;;5013560;28;20188;-71
2023/11/30 11:49:25;;;;;;;10.10;9.10;;;7.00;99.90;;;;;;5014053;28;20176;-70
2023/11/30 11:51:51;;;;;;;10.87;9.77;;;7.10;99.90;;;;;;5013703;28;20175;-71
2023/11/30 11:54:20;;;;;;;10.87;9.50;;;7.30;99.90;;;;;;5013513;28;20176;-70
2023/11/30 11:56:48;;;;;;;11.00;9.60;;;7.40;99.90;;;;;;5013757;28;20571;-70
2023/11/30 11:59:24;;;;;;;9.73;8.73;;;7.60;99.90;;;;;;5013133;28;20168;-70
2023/11/30 12:01:54;;;;;;;9.27;8.30;;;7.60;99.90;;;;;;5013594;28;20187;-70
2023/11/30 12:04:29;;;;;;;9.90;8.73;;;7.40;99.90;;;;;;5014172;28;20172;-70
2023/11/30 12:06:55;;;;;;;10.13;9.07;;;7.40;99.90;;;;;;5013543;28;20195;-70
2023/11/30 12:09:21;;;;;;;9.43;8.53;;;7.40;99.90;;;;;;5013353;28;20230;-70
2023/11/30 12:11:47;;;;;;;10.87;9.50;;;7.40;99.90;;;;;;5013439;28;20184;-70
2023/11/30 12:14:14;;;;;;;11.33;9.63;;;7.30;99.90;;;;;;5013205;28;20254;-70
2023/11/30 12:16:40;;;;;;;12.30;9.73;;;7.20;99.90;;;;;;5013288;28;20579;-70
2023/11/30 12:19:08;;;;;;;10.07;9.07;;;7.10;99.90;;;;;;5013304;28;20188;-70
2023/11/30 12:21:35;;;;;;;9.57;8.57;;;7.00;99.90;;;;;;5013212;28;20215;-70
2023/11/30 12:24:03;;;;;;;10.50;9.33;;;6.90;99.90;;;;;;5013183;28;20728;-70
2023/11/30 12:26:29;;;;;;;9.60;8.57;;;6.80;99.90;;;;;;5012875;28;20230;-71
2023/11/30 12:28:55;;;;;;;10.50;9.40;;;6.70;99.90;;;;;;5013544;28;20613;-70
2023/11/30 12:31:22;;;;;;;10.17;9.23;;;6.50;99.90;;;;;;5012909;28;20262;-71
2023/11/30 12:33:48;;;;;;;11.73;9.20;;;6.50;99.90;;;;;;5013722;28;20640;-70